Time;durP1;ratioP1;P1;durP2;ratioP2;P2;SDS_P1;SDS_P2;PMS_P1;PMS_P2;Temp;Humidity;BMP_temperature;BMP_pressure;BME280_temperature;BME280_humidity;BME280_pressure;Samples;Min_cycle;Max_cycle;Signal;HPM_P1;HPM_P2
2021/08/25 00:00:26;;;;;;;;;5.75;5.50;;;;;20.37;100.00;102017.19;5078850;27;45721;-74
2021/08/25 00:02:51;;;;;;;;;5.00;5.00;;;;;20.21;100.00;101994.75;5078933;27;45495;-73
2021/08/25 00:05:17;;;;;;;;;6.25;6.25;;;;;20.34;100.00;102020.78;5093399;27;45421;-72
2021/08/25 00:07:42;;;;;;;;;6.25;6.25;;;;;20.34;100.00;102018.13;5078813;27;45383;-73
2021/08/25 00:10:08;;;;;;;;;7.75;6.75;;;;;20.26;100.00;102006.06;5078656;27;45339;-73
2021/08/25 00:12:34;;;;;;;;;6.50;6.00;;;;;20.16;100.00;101992.25;5078514;27;45352;-74
2021/08/25 00:14:59;;;;;;;;;7.50;6.75;;;;;20.21;100.00;102000.91;5078910;27;45319;-74
2021/08/25 00:17:24;;;;;;;;;6.00;6.00;;;;;20.24;100.00;102008.75;5082297;27;47807;-74
2021/08/25 00:19:50;;;;;;;;;7.75;6.00;;;;;20.19;100.00;102005.41;5098955;27;45362;-73
2021/08/25 00:22:15;;;;;;;;;5.50;5.00;;;;;20.19;100.00;101995.66;5084617;27;45358;-74
2021/08/25 00:24:42;;;;;;;;;5.75;5.25;;;;;20.18;100.00;102001.03;5099168;27;45467;-73
2021/08/25 00:27:08;;;;;;;;;6.25;6.25;;;;;20.16;100.00;102000.22;5098582;27;46405;-71
2021/08/25 00:29:33;;;;;;;;;6.75;6.75;;;;;20.14;100.00;102000.28;5098654;27;45343;-73
2021/08/25 00:32:00;;;;;;;;;7.00;7.00;;;;;20.07;100.00;101987.25;5098802;27;45598;-74
2021/08/25 00:34:25;;;;;;;;;10.00;6.00;;;;;20.02;100.00;101983.91;5098905;27;45450;-74
2021/08/25 00:36:50;;;;;;;;;6.50;5.25;;;;;20.06;100.00;101993.47;5098650;27;46386;-73
2021/08/25 00:39:16;;;;;;;;;7.00;5.00;;;;;19.98;100.00;101988.44;5080573;27;45219;-70
2021/08/25 00:41:41;;;;;;;;;5.25;5.00;;;;;19.96;100.00;101990.28;5078327;27;45386;-72
2021/08/25 00:44:07;;;;;;;;;5.75;4.75;;;;;19.95;100.00;101988.53;5078110;27;45410;-72
2021/08/25 00:46:33;;;;;;;;;6.00;5.50;;;;;19.97;100.00;101991.16;5077949;27;45474;-73
2021/08/25 00:48:59;;;;;;;;;7.75;5.75;;;;;19.87;100.00;101980.81;5078133;27;45509;-74
2021/08/25 00:51:25;;;;;;;;;8.50;6.00;;;;;19.92;100.00;101990.44;5078003;27;45422;-74
2021/08/25 00:53:51;;;;;;;;;6.25;5.25;;;;;19.87;100.00;101980.81;5078290;27;45315;-73
2021/08/25 00:56:16;;;;;;;;;8.50;7.00;;;;;19.83;100.00;101983.63;5091967;27;46091;-73
2021/08/25 00:58:43;;;;;;;;;7.00;6.00;;;;;19.85;100.00;101987.97;5078054;27;45273;-73
2021/08/25 01:01:24;;;;;;;;;8.25;6.00;;;;;19.84;100.00;101988.00;5077926;27;45345;-74
2021/08/25 01:03:55;;;;;;;;;7.50;6.75;;;;;19.81;100.00;101991.63;5077852;27;45454;-74
2021/08/25 01:06:24;;;;;;;;;8.25;6.00;;;;;19.78;100.00;101988.22;5078177;27;46568;-74
2021/08/25 01:08:50;;;;;;;;;6.50;4.50;;;;;19.75;100.00;101978.59;5077549;27;45793;-74
2021/08/25 01:11:15;;;;;;;;;6.75;6.75;;;;;19.75;100.00;101981.25;5087863;27;45434;-74
2021/08/25 01:13:41;;;;;;;;;8.75;7.00;;;;;19.71;100.00;101976.97;5083877;27;45456;-72
2021/08/25 01:16:07;;;;;;;;;7.00;6.25;;;;;19.68;100.00;101982.34;5098208;27;46429;-74
2021/08/25 01:18:37;;;;;;;;;6.50;5.75;;;;;19.66;100.00;101976.22;5083633;27;45536;-73
2021/08/25 01:21:05;;;;;;;;;5.75;5.75;;;;;19.62;100.00;101974.59;5110700;27;45442;-73
2021/08/25 01:23:40;;;;;;;;;9.00;6.00;;;;;19.62;100.00;101976.38;5077794;27;45426;-72
2021/08/25 01:26:05;;;;;;;;;6.25;5.25;;;;;19.60;100.00;101984.38;5077300;27;45456;-73
2021/08/25 01:28:35;;;;;;;;;6.75;6.00;;;;;19.55;100.00;101981.00;5077052;27;45482;-73
2021/08/25 01:31:02;;;;;;;;;7.25;6.00;;;;;19.57;100.00;101979.19;5082649;27;45505;-72
2021/08/25 01:33:30;;;;;;;;;6.75;6.50;;;;;19.55;100.00;101979.22;5086193;27;45620;-73
2021/08/25 01:35:56;;;;;;;;;8.00;8.00;;;;;19.53;100.00;101982.81;5075823;27;46204;-73
2021/08/25 01:38:37;;;;;;;;;6.00;6.00;;;;;19.51;100.00;101977.56;5087888;27;45332;-73
2021/08/25 01:41:04;;;;;;;;;8.00;6.00;;;;;19.46;100.00;101970.66;5078936;27;45410;-74
2021/08/25 01:43:30;;;;;;;;;6.00;6.00;;;;;19.47;100.00;101978.59;5087949;27;45379;-74
2021/08/25 01:45:55;;;;;;;;;6.50;6.50;;;;;19.41;100.00;101976.09;5082967;27;45883;-74
2021/08/25 01:48:21;;;;;;;;;7.50;7.00;;;;;19.38;100.00;101962.09;5092902;27;45396;-74
2021/08/25 01:50:47;;;;;;;;;7.50;6.00;;;;;19.26;100.00;101950.13;5077357;27;45282;-73
2021/08/25 01:53:14;;;;;;;;;6.75;6.00;;;;;19.31;100.00;101958.78;5079897;27;45419;-74
2021/08/25 01:55:39;;;;;;;;;8.25;7.00;;;;;19.32;100.00;101964.94;5097433;27;46736;-73
2021/08/25 01:58:05;;;;;;;;;7.50;7.00;;;;;19.30;100.00;101965.00;5083092;27;45367;-74
2021/08/25 02:00:30;;;;;;;;;6.25;6.00;;;;;19.31;100.00;101966.72;5090987;27;45315;-72
2021/08/25 02:02:56;;;;;;;;;7.00;7.00;;;;;19.26;100.00;101969.53;5090083;27;45367;-72
2021/08/25 02:05:21;;;;;;;;;7.75;6.00;;;;;19.27;100.00;101963.31;5092659;27;45987;-71
2021/08/25 02:07:46;;;;;;;;;8.50;8.00;;;;;19.23;100.00;101966.94;5077098;27;45282;-71
2021/08/25 02:10:13;;;;;;;;;6.00;6.00;;;;;19.21;100.00;101960.81;5076880;27;45451;-72
2021/08/25 02:12:38;;;;;;;;;8.75;7.25;;;;;19.22;100.00;101967.84;5077252;27;45643;-71
2021/08/25 02:15:04;;;;;;;;;6.00;6.00;;;;;19.14;100.00;101948.69;5076732;27;46013;-72
2021/08/25 02:17:29;;;;;;;;;7.00;6.00;;;;;19.20;100.00;101964.38;5076864;27;45695;-72
2021/08/25 02:19:55;;;;;;;;;8.00;7.00;;;;;19.15;100.00;101958.38;5076857;27;45287;-72
2021/08/25 02:22:20;;;;;;;;;9.00;8.50;;;;;19.16;100.00;101959.25;5079807;27;45554;-72
2021/08/25 02:24:45;;;;;;;;;7.75;7.50;;;;;19.09;100.00;101947.97;5092147;27;47528;-71
2021/08/25 02:27:11;;;;;;;;;8.00;7.50;;;;;19.12;100.00;101954.97;5090362;27;45410;-73
2021/08/25 02:29:36;;;;;;;;;7.75;7.00;;;;;19.10;100.00;101957.66;5089013;27;45343;-72
2021/08/25 02:32:02;;;;;;;;;7.00;7.00;;;;;19.09;100.00;101955.06;5076887;27;45461;-72
2021/08/25 02:34:27;;;;;;;;;8.00;7.00;;;;;19.05;100.00;101949.00;5082765;27;45208;-73
2021/08/25 02:36:52;;;;;;;;;7.00;7.00;;;;;19.01;100.00;101950.00;5097094;27;45239;-73
2021/08/25 02:39:18;;;;;;;;;7.00;7.00;;;;;19.03;100.00;101961.41;5095762;27;45449;-73
2021/08/25 02:41:43;;;;;;;;;5.25;5.25;;;;;19.01;100.00;101957.03;5088025;27;45336;-72
2021/08/25 02:44:09;;;;;;;;;10.00;8.50;;;;;18.94;100.00;101948.44;5084560;27;46552;-73
2021/08/25 02:46:34;;;;;;;;;7.25;6.75;;;;;18.91;100.00;101949.38;5079981;27;45309;-73
2021/08/25 02:48:59;;;;;;;;;8.00;7.25;;;;;18.94;100.00;101956.38;5080119;27;45178;-73
2021/08/25 02:51:25;;;;;;;;;7.75;7.25;;;;;18.92;100.00;101953.78;5080285;27;45363;-73
2021/08/25 02:53:50;;;;;;;;;7.00;5.75;;;;;18.86;100.00;101942.50;5079623;27;45453;-73
2021/08/25 02:56:15;;;;;;;;;10.75;9.00;;;;;18.88;100.00;101956.56;5086231;27;45228;-73
2021/08/25 02:58:41;;;;;;;;;9.75;7.75;;;;;18.86;100.00;101953.97;5086512;27;45365;-73
2021/08/25 03:01:06;;;;;;;;;8.00;8.00;;;;;18.84;100.00;101952.28;5083982;27;45159;-74
2021/08/25 03:03:32;;;;;;;;;8.00;7.00;;;;;18.80;100.00;101942.69;5090022;27;46168;-73
2021/08/25 03:05:57;;;;;;;;;8.75;8.25;;;;;18.78;100.00;101950.66;5079662;27;45367;-74
2021/08/25 03:08:23;;;;;;;;;6.75;6.00;;;;;18.70;100.00;101930.63;5079918;27;45325;-73
2021/08/25 03:10:48;;;;;;;;;7.00;6.00;;;;;18.71;100.00;101932.34;5094059;27;46541;-73
2021/08/25 03:13:14;;;;;;;;;9.00;8.00;;;;;18.61;100.00;101922.03;5093895;27;47137;-74
2021/08/25 03:15:39;;;;;;;;;10.25;7.25;;;;;18.72;100.00;101949.97;5090868;27;45429;-73
2021/08/25 03:18:05;;;;;;;;;10.00;7.00;;;;;18.72;100.00;101947.31;5085509;27;45534;-74
2021/08/25 03:20:30;;;;;;;;;8.00;8.00;;;;;18.62;100.00;101934.38;5091053;27;45245;-73
2021/08/25 03:22:56;;;;;;;;;8.00;8.00;;;;;18.64;100.00;101937.84;5080483;27;46452;-73
2021/08/25 03:25:21;;;;;;;;;6.00;6.00;;;;;18.66;100.00;101940.44;5092799;27;45458;-73
2021/08/25 03:27:47;;;;;;;;;10.75;8.00;;;;;18.65;100.00;101939.56;5079391;27;45300;-73
2021/08/25 03:30:12;;;;;;;;;7.75;7.00;;;;;18.64;100.00;101942.25;5093698;27;45535;-73
2021/08/25 03:32:38;;;;;;;;;9.00;6.75;;;;;18.59;100.00;101933.56;5079208;27;46543;-74
2021/08/25 03:35:04;;;;;;;;;6.00;6.00;;;;;18.58;100.00;101937.97;5094646;27;45471;-74
2021/08/25 03:37:29;;;;;;;;;10.00;7.00;;;;;18.58;100.00;101931.81;5099666;27;45311;-73
2021/08/25 03:39:55;;;;;;;;;7.75;6.50;;;;;18.56;100.00;101936.31;5098888;27;45368;-74
2021/08/25 03:42:20;;;;;;;;;7.25;6.75;;;;;18.51;100.00;101931.09;5078987;27;45426;-74
2021/08/25 03:44:45;;;;;;;;;7.00;6.00;;;;;18.48;100.00;101928.56;5092023;27;45447;-74
2021/08/25 03:47:11;;;;;;;;;8.75;7.75;;;;;18.49;100.00;101932.94;5094695;27;45388;-72
2021/08/25 03:49:36;;;;;;;;;7.00;7.00;;;;;18.49;100.00;101937.34;5089443;27;45933;-73
2021/08/25 03:52:03;;;;;;;;;9.75;8.25;;;;;18.44;100.00;101934.84;5082319;27;46128;-73
2021/08/25 03:54:29;;;;;;;;;8.00;7.50;;;;;18.45;100.00;101938.34;5086628;27;45391;-73
2021/08/25 03:56:55;;;;;;;;;8.00;7.50;;;;;18.42;100.00;101935.81;5099504;27;45500;-74
2021/08/25 03:59:21;;;;;;;;;7.25;6.00;;;;;18.35;100.00;101930.69;5093238;27;45561;-72
2021/08/25 04:01:52;;;;;;;;;6.50;6.00;;;;;18.33;100.00;101931.63;5091008;27;45344;-74
2021/08/25 04:04:20;;;;;;;;;9.00;7.00;;;;;18.33;100.00;101931.63;5084622;27;45503;-72
2021/08/25 04:06:45;;;;;;;;;8.00;7.50;;;;;18.26;100.00;101924.78;5088370;27;45347;-74
2021/08/25 04:09:11;;;;;;;;;7.00;6.75;;;;;18.16;100.00;101910.09;5078816;27;45426;-74
2021/08/25 04:11:36;;;;;;;;;8.75;8.25;;;;;18.19;100.00;101918.78;5087433;27;45659;-74
2021/08/25 04:14:02;;;;;;;;;8.75;8.00;;;;;18.25;100.00;101942.41;5098795;27;45404;-74
2021/08/25 04:16:28;;;;;;;;;7.75;7.50;;;;;18.24;100.00;101942.44;5099632;27;45295;-74
2021/08/25 04:18:54;;;;;;;;;8.50;8.00;;;;;18.20;100.00;101930.22;5086285;27;45364;-74
2021/08/25 04:21:19;;;;;;;;;7.25;6.75;;;;;18.15;100.00;101929.50;5092592;27;45546;-74
2021/08/25 04:23:45;;;;;;;;;8.75;8.75;;;;;18.14;100.00;101931.28;5089417;27;45363;-74
2021/08/25 04:26:10;;;;;;;;;7.50;6.25;;;;;18.15;100.00;101932.13;5098772;27;45334;-74
2021/08/25 04:28:36;;;;;;;;;8.25;8.00;;;;;18.14;100.00;101935.69;5098858;27;45433;-74
2021/08/25 04:31:01;;;;;;;;;8.25;8.00;;;;;18.04;100.00;101925.34;5097671;27;45539;-74
2021/08/25 04:33:26;;;;;;;;;6.25;6.25;;;;;18.00;100.00;101918.41;5078447;27;45454;-74
2021/08/25 04:35:52;;;;;;;;;8.75;8.25;;;;;18.05;100.00;101927.06;5091146;27;45438;-73
2021/08/25 04:38:17;;;;;;;;;6.75;6.25;;;;;18.01;100.00;101925.44;5084341;27;45378;-72
2021/08/25 04:40:43;;;;;;;;;10.00;9.00;;;;;17.99;100.00;101919.31;5087843;27;46286;-74
2021/08/25 04:43:09;;;;;;;;;9.00;7.75;;;;;18.00;100.00;101931.63;5094848;27;45320;-74
2021/08/25 04:45:38;;;;;;;;;9.00;8.75;;;;;17.99;100.00;101935.16;5098477;27;45551;-74
2021/08/25 04:48:03;;;;;;;;;7.75;7.25;;;;;17.99;100.00;101934.31;5098732;27;45208;-74
2021/08/25 04:50:29;;;;;;;;;8.00;7.25;;;;;17.94;100.00;101923.88;5095251;27;45484;-74
2021/08/25 04:52:54;;;;;;;;;11.25;9.00;;;;;17.92;100.00;101933.59;5078140;27;45261;-73
2021/08/25 04:55:20;;;;;;;;;8.50;8.50;;;;;17.93;100.00;101929.19;5094501;27;45339;-72
2021/08/25 04:57:45;;;;;;;;;8.00;6.75;;;;;17.88;100.00;101921.38;5091884;27;45298;-73
2021/08/25 05:00:11;;;;;;;;;11.00;8.00;;;;;17.91;100.00;101931.00;5090527;27;45541;-72
2021/08/25 05:02:36;;;;;;;;;8.75;8.00;;;;;17.76;100.00;101921.69;5083477;27;45328;-73
2021/08/25 05:05:02;;;;;;;;;12.50;9.50;;;;;17.89;100.00;101933.69;5093927;27;45945;-73
2021/08/25 05:07:27;;;;;;;;;9.00;9.00;;;;;17.87;100.00;101929.31;5077945;27;45470;-73
2021/08/25 05:09:53;;;;;;;;;11.00;9.00;;;;;17.81;100.00;101930.34;5077536;27;45312;-74
2021/08/25 05:12:19;;;;;;;;;9.50;8.00;;;;;17.85;100.00;101933.78;5077598;27;45254;-74
2021/08/25 05:14:44;;;;;;;;;9.75;9.50;;;;;17.82;100.00;101929.44;5077885;27;45396;-74
2021/08/25 05:17:10;;;;;;;;;9.00;8.75;;;;;17.84;100.00;101930.28;5090576;27;45427;-74
2021/08/25 05:19:35;;;;;;;;;10.00;9.00;;;;;17.86;100.00;101935.50;5078885;27;45370;-73
2021/08/25 05:22:00;;;;;;;;;10.00;9.00;;;;;17.82;100.00;101934.72;5088220;27;45361;-73
2021/08/25 05:24:26;;;;;;;;;9.50;9.00;;;;;17.85;100.00;101931.13;5097743;27;45333;-73
2021/08/25 05:26:51;;;;;;;;;9.50;8.00;;;;;17.80;100.00;101925.09;5089691;27;45679;-73
2021/08/25 05:29:16;;;;;;;;;10.25;8.50;;;;;17.88;100.00;101933.69;5075612;27;47422;-71
2021/08/25 05:31:42;;;;;;;;;13.00;9.75;;;;;17.87;100.00;101940.75;5077271;27;45344;-73
2021/08/25 05:34:11;;;;;;;;;10.00;9.00;;;;;17.86;100.00;101941.66;5089881;27;45315;-72
2021/08/25 05:36:37;;;;;;;;;12.75;8.25;;;;;17.89;100.00;101946.91;5078737;27;45317;-73
2021/08/25 05:39:02;;;;;;;;;11.50;9.50;;;;;17.90;100.00;101937.19;5077291;27;45598;-73
2021/08/25 05:41:27;;;;;;;;;9.75;9.25;;;;;17.93;100.00;101932.69;5091948;27;45407;-73
2021/08/25 05:43:53;;;;;;;;;10.25;9.00;;;;;17.89;100.00;101928.41;5097614;27;45354;-73
2021/08/25 05:46:18;;;;;;;;;7.00;7.00;;;;;17.96;100.00;101937.91;5083521;27;45371;-74
2021/08/25 05:48:44;;;;;;;;;12.25;9.50;;;;;17.94;100.00;101931.78;5094899;27;45506;-73
2021/08/25 05:51:09;;;;;;;;;10.00;9.50;;;;;18.00;100.00;101934.25;5085822;27;45399;-73
2021/08/25 05:53:34;;;;;;;;;13.00;10.00;;;;;18.00;100.00;101928.09;5082763;27;45846;-72
2021/08/25 05:56:00;;;;;;;;;12.25;10.00;;;;;18.04;100.00;101935.03;5083682;27;45311;-74
2021/08/25 05:58:25;;;;;;;;;10.00;8.00;;;;;18.11;100.00;101943.72;5097465;27;46075;-73
2021/08/25 06:00:50;;;;;;;;;9.00;8.50;;;;;18.04;100.00;101930.63;5093091;27;45374;-73
2021/08/25 06:03:16;;;;;;;;;10.75;8.00;;;;;18.15;100.00;101942.72;5087093;27;45397;-73
2021/08/25 06:05:41;;;;;;;;;10.75;8.75;;;;;18.17;100.00;101951.47;5081078;27;45464;-74
2021/08/25 06:08:06;;;;;;;;;9.50;8.00;;;;;18.21;100.00;101953.13;5076831;28;47313;-74
2021/08/25 06:10:32;;;;;;;;;9.50;9.50;;;;;18.25;100.00;101960.91;5076961;27;45486;-72
2021/08/25 06:12:57;;;;;;;;;10.75;10.50;;;;;18.27;100.00;101947.66;5092523;27;45588;-73
2021/08/25 06:15:23;;;;;;;;;8.25;8.00;;;;;18.29;100.00;101951.13;5077719;27;45518;-72
2021/08/25 06:17:49;;;;;;;;;10.50;10.00;;;;;18.36;100.00;101952.72;5080294;27;45414;-73
2021/08/25 06:20:15;;;;;;;;;18.00;16.00;;;;;18.41;100.00;101948.16;5105919;27;45297;-73
2021/08/25 06:22:41;;;;;;;;;13.25;10.00;;;;;18.47;100.00;101953.28;5084413;27;45403;-73
2021/08/25 06:25:08;;;;;;;;;9.00;9.00;;;;;18.51;100.00;101956.69;5080724;27;45397;-73
2021/08/25 06:27:33;;;;;;;;;9.75;9.00;;;;;18.54;100.00;101949.53;5080229;27;45382;-73
2021/08/25 06:29:59;;;;;;;;;9.50;9.25;;;;;18.55;100.00;101942.47;5078554;27;46177;-73
2021/08/25 06:32:24;;;;;;;;;9.00;8.00;;;;;18.64;100.00;101944.91;5092479;27;45485;-73
2021/08/25 06:34:49;;;;;;;;;10.00;8.75;;;;;18.67;100.00;101937.75;5085997;27;45406;-72
2021/08/25 06:37:15;;;;;;;;;13.75;9.00;;;;;18.75;100.00;101949.88;5090483;27;46096;-74
2021/08/25 06:39:43;;;;;;;;;11.00;9.00;;;;;18.81;100.00;101952.38;5094336;27;45338;-73
2021/08/25 06:42:09;;;;;;;;;12.00;10.00;;;;;18.85;100.00;101946.06;5088294;27;45347;-73
2021/08/25 06:44:34;;;;;;;;;9.50;8.25;;;;;18.87;100.00;101941.59;5086379;27;45429;-72
2021/08/25 06:46:59;;;;;;;;;8.00;7.50;;;;;18.91;100.00;101943.22;5079970;27;45496;-73
2021/08/25 06:49:25;;;;;;;;;9.75;8.00;;;;;18.95;100.00;101943.09;5079613;27;45351;-72
2021/08/25 06:51:50;;;;;;;;;8.75;8.00;;;;;19.04;100.00;101951.69;5095630;27;45191;-71
2021/08/25 06:54:15;;;;;;;;;10.00;9.50;;;;;19.08;100.00;101948.91;5086552;27;45351;-73
2021/08/25 06:56:41;;;;;;;;;10.75;9.75;;;;;19.12;100.00;101952.31;5088119;27;46271;-73
2021/08/25 06:59:06;;;;;;;;;9.25;8.00;;;;;19.20;100.00;101951.16;5079486;27;45236;-73
2021/08/25 07:01:32;;;;;;;;;17.75;13.50;;;;;19.21;100.00;101958.19;5089898;27;45473;-72
2021/08/25 07:03:57;;;;;;;;;13.00;10.75;;;;;19.25;100.00;101951.91;5095562;27;45395;-73
2021/08/25 07:06:29;;;;;;;;;11.00;10.00;;;;;19.33;100.00;101956.09;5079327;27;46268;-73
2021/08/25 07:08:54;;;;;;;;;11.25;10.00;;;;;19.35;100.00;101957.75;5094301;27;45769;-72
2021/08/25 07:11:20;;;;;;;;;9.00;8.00;;;;;19.31;100.00;101942.03;5093640;27;45202;-72
2021/08/25 07:13:45;;;;;;;;;9.75;8.25;;;;;19.40;100.00;101955.84;5080097;27;45477;-71
2021/08/25 07:16:12;;;;;;;;;9.25;8.75;;;;;19.43;100.00;101954.88;5079248;27;45267;-72
2021/08/25 07:18:43;;;;;;;;;11.00;10.00;;;;;19.45;100.00;101960.97;5079266;27;45626;-72
2021/08/25 07:21:10;;;;;;;;;9.75;9.75;;;;;19.53;100.00;101969.56;5094966;27;45341;-72
2021/08/25 07:23:35;;;;;;;;;10.00;9.50;;;;;19.55;100.00;101950.09;5079471;27;45242;-73
2021/08/25 07:26:01;;;;;;;;;11.25;9.75;;;;;19.58;100.00;101949.97;5080292;27;46409;-72
2021/08/25 07:28:26;;;;;;;;;11.50;9.75;;;;;19.62;100.00;101940.16;5089473;27;45419;-73
2021/08/25 07:30:51;;;;;;;;;10.00;8.25;;;;;19.67;100.00;101935.56;5092817;27;45217;-72
2021/08/25 07:33:19;;;;;;;;;9.00;8.00;;;;;19.77;100.00;101950.25;5099861;27;45458;-72
2021/08/25 07:35:48;;;;;;;;;10.25;9.25;;;;;19.83;100.00;101946.53;5087717;27;45610;-71
2021/08/25 07:38:15;;;;;;;;;11.00;9.00;;;;;19.84;100.00;101933.22;5083031;27;45757;-72
2021/08/25 07:40:40;;;;;;;;;9.75;8.75;;;;;19.94;100.00;101948.84;5099696;27;45411;-72
2021/08/25 07:43:06;;;;;;;;;7.75;7.50;;;;;20.03;100.00;101948.50;5085112;27;45321;-72
2021/08/25 07:45:34;;;;;;;;;10.50;8.00;;;;;20.09;100.00;101950.94;5099373;27;47433;-72
2021/08/25 07:47:59;;;;;;;;;6.00;6.00;;;;;20.16;100.00;101949.84;5099031;27;45653;-72
2021/08/25 07:50:25;;;;;;;;;11.25;9.75;;;;;20.16;100.00;101933.91;5078619;27;45426;-71
2021/08/25 07:52:50;;;;;;;;;9.00;8.50;;;;;20.26;100.00;101945.91;5079297;27;45394;-72
2021/08/25 07:55:16;;;;;;;;;12.00;9.00;;;;;20.40;100.00;101945.44;5093438;27;45404;-72
2021/08/25 07:57:41;;;;;;;;;10.75;9.25;;;;;20.40;100.00;101932.19;5091559;27;45529;-71
2021/08/25 08:00:07;;;;;;;;;9.00;9.00;;;;;20.54;100.00;101937.00;5091498;27;45326;-69
2021/08/25 08:02:36;;;;;;;;;12.25;12.00;;;;;20.70;100.00;101948.78;5080915;27;45212;-72
2021/08/25 08:05:03;;;;;;;;;12.25;10.25;;;;;20.87;100.00;101943.72;5078545;27;45408;-72
2021/08/25 08:07:29;;;;;;;;;9.50;8.00;;;;;21.02;100.00;101935.16;5078425;27;45761;-72
2021/08/25 08:09:54;;;;;;;;;10.50;9.75;;;;;21.21;100.00;101935.31;5078736;27;45332;-73
2021/08/25 08:12:19;;;;;;;;;8.00;7.00;;;;;21.38;100.00;101932.88;5079453;27;45426;-72
2021/08/25 08:14:45;;;;;;;;;10.00;9.00;;;;;21.59;100.00;101927.63;5099203;27;45421;-73
2021/08/25 08:17:10;;;;;;;;;11.00;9.50;;;;;21.80;100.00;101931.19;5086051;27;45328;-73
2021/08/25 08:19:36;;;;;;;;;11.50;8.75;;;;;21.95;100.00;101925.19;5078470;27;45400;-73
2021/08/25 08:22:02;;;;;;;;;9.25;9.00;;;;;22.19;100.00;101926.84;5084668;27;45611;-72
2021/08/25 08:24:29;;;;;;;;;13.00;13.00;;;;;22.39;100.00;101935.72;5078010;27;46153;-71
2021/08/25 08:26:55;;;;;;;;;10.25;9.00;;;;;22.54;100.00;101924.41;5087549;27;45301;-71
2021/08/25 08:29:21;;;;;;;;;8.75;8.00;;;;;22.75;100.00;101927.88;5083481;27;45474;-71
2021/08/25 08:31:46;;;;;;;;;8.00;8.00;;;;;22.94;100.00;101930.59;5078809;27;45183;-71
2021/08/25 08:34:12;;;;;;;;;9.25;8.25;;;;;23.13;100.00;101921.66;5078021;27;46164;-71
2021/08/25 08:36:37;;;;;;;;;11.00;9.50;;;;;23.31;100.00;101925.25;5078090;27;45444;-71
2021/08/25 08:39:03;;;;;;;;;8.75;8.00;;;;;23.44;100.00;101923.69;5088846;27;45702;-71
2021/08/25 08:41:29;;;;;;;;;10.25;7.00;;;;;23.65;100.00;101911.13;5081791;27;45508;-71
2021/08/25 08:43:55;;;;;;;;;8.00;7.25;;;;;23.74;100.00;101893.78;5102379;27;47336;-71
2021/08/25 08:46:22;;;;;;;;;8.75;8.00;;;;;24.04;100.00;101912.72;5083165;27;45566;-71
2021/08/25 08:48:49;;;;;;;;;9.00;8.00;;;;;24.17;100.00;101911.13;5082224;27;45170;-66
2021/08/25 08:51:24;;;;;;;;;11.00;10.75;;;;;24.39;100.00;101910.88;5078218;27;45281;-71
2021/08/25 08:53:52;;;;;;;;;9.75;9.00;;;;;24.51;100.00;101909.38;5077674;27;47151;-70
2021/08/25 08:56:17;;;;;;;;;10.25;9.50;;;;;24.71;100.00;101918.03;5087068;27;45801;-71
2021/08/25 08:58:43;;;;;;;;;10.50;7.25;;;;;24.94;100.00;101914.09;5084147;27;45329;-70
2021/08/25 09:01:09;;;;;;;;;9.75;9.25;;;;;25.14;100.00;101907.66;5091802;27;45427;-71
2021/08/25 09:03:37;;;;;;;;;12.00;10.00;;;;;25.33;100.00;101908.31;5090363;27;45596;-71
2021/08/25 09:06:04;;;;;;;;;8.25;7.50;;;;;25.63;100.00;101915.53;5082133;27;45680;-71
2021/08/25 09:08:32;;;;;;;;;9.75;8.50;;;;;25.85;100.00;101907.13;5098182;27;45299;-71
2021/08/25 09:11:12;;;;;;;;;9.25;8.25;;;;;26.12;100.00;101913.47;5080487;27;45509;-71
2021/08/25 09:13:51;;;;;;;;;10.00;8.75;;;;;26.32;99.95;101889.97;5089189;27;45475;-71
2021/08/25 09:16:34;;;;;;;;;9.00;8.75;;;;;26.77;98.28;101919.28;5099143;27;45402;-71
2021/08/25 09:19:00;;;;;;;;;9.75;8.00;;;;;27.08;96.40;101901.25;5097772;27;45466;-71
2021/08/25 09:21:31;;;;;;;;;8.50;7.50;;;;;27.43;94.05;101891.75;5097994;27;45489;-71
2021/08/25 09:23:56;;;;;;;;;8.00;8.00;;;;;27.81;93.87;101893.66;5085360;27;45685;-71
2021/08/25 09:26:21;;;;;;;;;8.00;7.00;;;;;28.23;91.29;101897.03;5081545;27;45340;-71
2021/08/25 09:28:48;;;;;;;;;7.25;7.25;;;;;28.56;90.09;101877.72;5087394;27;45336;-71
2021/08/25 09:31:14;;;;;;;;;8.00;7.25;;;;;29.13;87.28;101887.88;5079571;27;45333;-70
2021/08/25 09:33:45;;;;;;;;;9.00;6.50;;;;;29.67;86.44;101891.00;5096121;27;48312;-71
2021/08/25 09:36:12;;;;;;;;;9.00;9.00;;;;;30.35;84.31;101886.63;5083130;27;45628;-70
2021/08/25 09:38:39;;;;;;;;;7.75;7.75;;;;;31.15;81.07;101894.50;5090428;27;45547;-72
2021/08/25 09:41:10;;;;;;;;;8.25;7.75;;;;;31.97;78.61;101888.41;5090876;27;45296;-70
2021/08/25 09:43:37;;;;;;;;;5.00;5.00;;;;;32.76;74.84;101890.47;5077066;27;46223;-70
2021/08/25 09:46:22;;;;;;;;;6.00;5.50;;;;;33.65;72.94;101894.91;5089421;27;45474;-70
2021/08/25 09:48:51;;;;;;;;;6.25;6.00;;;;;34.49;68.42;101888.75;5090658;27;45546;-69
2021/08/25 09:51:20;;;;;;;;;6.50;6.25;;;;;35.09;66.18;101887.31;5076783;27;45373;-70
2021/08/25 09:53:48;;;;;;;;;6.00;6.00;;;;;35.48;62.02;101885.13;5092946;27;46066;-69
2021/08/25 09:56:34;;;;;;;;;7.00;6.50;;;;;35.46;60.63;101868.16;5097520;27;45548;-70
2021/08/25 09:59:01;;;;;;;;;6.75;5.75;;;;;35.23;59.17;101877.75;5096988;27;45389;-70
2021/08/25 10:01:27;;;;;;;;;6.00;6.00;;;;;34.77;59.63;101878.75;5097793;27;45204;-69
2021/08/25 10:03:54;;;;;;;;;6.00;4.75;;;;;34.30;59.96;101865.25;5097333;27;45537;-70
2021/08/25 10:06:45;;;;;;;;;5.75;5.75;;;;;33.98;60.70;101876.50;5106103;27;45387;-71
2021/08/25 10:09:15;;;;;;;;;6.25;5.25;;;;;33.80;60.32;101869.09;5091333;27;45431;-71
2021/08/25 10:11:44;;;;;;;;;7.50;6.75;;;;;33.85;59.52;101867.81;5077115;27;45386;-70
2021/08/25 10:14:16;;;;;;;;;7.25;7.25;;;;;34.03;60.87;101866.94;5076688;27;45727;-71
2021/08/25 10:16:59;;;;;;;;;8.00;7.00;;;;;34.62;59.17;101867.53;5085644;27;45390;-71
2021/08/25 10:19:38;;;;;;;;;8.00;6.50;;;;;35.12;55.84;101867.97;5079669;27;45439;-71
2021/08/25 10:22:10;;;;;;;;;8.25;7.75;;;;;35.78;54.70;101855.84;5088248;27;45195;-72
2021/08/25 10:24:53;;;;;;;;;10.25;8.75;;;;;36.64;52.20;101861.25;5112625;27;47325;-70
2021/08/25 10:27:20;;;;;;;;;12.50;8.50;;;;;37.39;50.37;101853.97;5084773;27;45319;-70
2021/08/25 10:30:01;;;;;;;;;6.50;6.00;;;;;38.35;46.90;101856.72;5076597;27;45425;-71
2021/08/25 10:32:34;;;;;;;;;7.00;5.75;;;;;38.97;43.55;101845.84;5089448;27;45339;-70
2021/08/25 10:35:24;;;;;;;;;7.25;6.50;;;;;39.43;42.51;101845.84;5096791;27;46180;-71
2021/08/25 10:37:51;;;;;;;;;6.50;6.00;;;;;39.61;41.22;101829.97;5111993;27;45495;-71
2021/08/25 10:40:31;;;;;;;;;5.75;5.75;;;;;40.06;40.20;101847.28;5076819;27;45293;-72
2021/08/25 10:43:01;;;;;;;;;7.75;7.00;;;;;40.62;39.39;101828.47;5076474;27;45244;-71
2021/08/25 10:45:39;;;;;;;;;6.50;5.50;;;;;41.48;37.96;101845.81;5076421;27;46560;-70
2021/08/25 10:48:09;;;;;;;;;7.00;7.00;;;;;42.19;37.22;101832.81;5090600;27;45384;-70
2021/08/25 10:50:46;;;;;;;;;7.50;7.00;;;;;42.94;36.05;101839.25;5080066;27;45273;-72
2021/08/25 10:53:33;;;;;;;;;5.25;5.25;;;;;43.37;34.21;101840.56;5085521;27;45405;-71
2021/08/25 10:56:15;;;;;;;;;7.00;6.25;;;;;43.40;33.68;101829.13;5076326;27;46659;-72
2021/08/25 10:58:55;;;;;;;;;6.50;5.50;;;;;43.54;33.03;101841.00;5085910;27;46071;-71
2021/08/25 11:01:23;;;;;;;;;6.75;6.00;;;;;43.89;31.71;101825.06;5077129;27;45409;-70
2021/08/25 11:03:49;;;;;;;;;5.50;5.00;;;;;44.28;31.08;101828.78;5089718;27;45444;-71
2021/08/25 11:06:58;;;;;;;;;6.25;6.25;;;;;44.72;30.86;101813.31;5086356;27;46510;-71
2021/08/25 11:09:32;;;;;;;;;12.75;10.75;;;;;45.11;29.95;101815.81;5016862;28;45640;-71
2021/08/25 11:12:00;;;;;;;;;8.00;7.25;;;;;45.34;29.64;101801.44;5017034;28;45422;-71
2021/08/25 11:14:31;;;;;;;;;7.75;7.00;;;;;45.63;27.98;101804.56;5017230;28;45489;-71
2021/08/25 11:17:04;;;;;;;;;6.00;6.00;;;;;45.71;28.96;101795.97;5000256;28;47510;-71